sensor_id;sensor_type;location;lat;lon;timestamp;temperature;humidity
26505;DHT22;19493;48.042;7.584;2023-05-07T00:02:21;12.60;99.90
26505;DHT22;19493;48.042;7.584;2023-05-07T00:04:48;12.60;99.90
26505;DHT22;19493;48.042;7.584;2023-05-07T00:07:14;12.70;99.90
26505;DHT22;19493;48.042;7.584;2023-05-07T00:09:40;12.70;99.90
26505;DHT22;19493;48.042;7.584;2023-05-07T00:12:06;12.80;99.90
26505;DHT22;19493;48.042;7.584;2023-05-07T00:14:32;12.80;99.90
26505;DHT22;19493;48.042;7.584;2023-05-07T00:16:58;12.90;99.90
26505;DHT22;19493;48.042;7.584;2023-05-07T00:19:23;12.90;99.90
26505;DHT22;19493;48.042;7.584;2023-05-07T00:21:49;12.90;99.90
26505;DHT22;19493;48.042;7.584;2023-05-07T00:24:15;12.90;99.90
26505;DHT22;19493;48.042;7.584;2023-05-07T00:26:40;13.00;99.90
26505;DHT22;19493;48.042;7.584;2023-05-07T00:29:06;13.00;99.90
26505;DHT22;19493;48.042;7.584;2023-05-07T00:31:32;13.10;99.90
26505;DHT22;19493;48.042;7.584;2023-05-07T00:33:57;13.10;99.90
26505;DHT22;19493;48.042;7.584;2023-05-07T00:36:23;13.10;99.90
26505;DHT22;19493;48.042;7.584;2023-05-07T00:38:48;13.10;99.90
26505;DHT22;19493;48.042;7.584;2023-05-07T00:41:15;13.10;99.90
26505;DHT22;19493;48.042;7.584;2023-05-07T00:43:40;13.10;99.90
26505;DHT22;19493;48.042;7.584;2023-05-07T00:46:06;13.10;99.90
26505;DHT22;19493;48.042;7.584;2023-05-07T00:48:32;13.00;99.90
26505;DHT22;19493;48.042;7.584;2023-05-07T00:50:57;13.00;99.90
26505;DHT22;19493;48.042;7.584;2023-05-07T00:53:23;13.00;99.90
26505;DHT22;19493;48.042;7.584;2023-05-07T00:55:49;13.00;99.90
26505;DHT22;19493;48.042;7.584;2023-05-07T00:58:14;12.90;99.90
26505;DHT22;19493;48.042;7.584;2023-05-07T01:00:40;12.90;99.90
26505;DHT22;19493;48.042;7.584;2023-05-07T01:03:06;12.90;99.90
26505;DHT22;19493;48.042;7.584;2023-05-07T01:05:32;12.80;99.90
26505;DHT22;19493;48.042;7.584;2023-05-07T01:07:58;12.80;99.90
26505;DHT22;19493;48.042;7.584;2023-05-07T01:10:24;12.70;99.90
26505;DHT22;19493;48.042;7.584;2023-05-07T01:12:50;12.70;99.90
26505;DHT22;19493;48.042;7.584;2023-05-07T01:15:16;12.60;99.90
26505;DHT22;19493;48.042;7.584;2023-05-07T01:17:42;12.50;99.90
26505;DHT22;19493;48.042;7.584;2023-05-07T01:20:09;12.50;99.90
26505;DHT22;19493;48.042;7.584;2023-05-07T01:22:37;12.40;99.90
26505;DHT22;19493;48.042;7.584;2023-05-07T01:25:04;12.30;99.90
26505;DHT22;19493;48.042;7.584;2023-05-07T01:27:30;12.30;99.90
26505;DHT22;19493;48.042;7.584;2023-05-07T01:29:56;12.20;99.90
26505;DHT22;19493;48.042;7.584;2023-05-07T01:32:29;12.10;99.90
26505;DHT22;19493;48.042;7.584;2023-05-07T01:34:58;12.10;99.90
26505;DHT22;19493;48.042;7.584;2023-05-07T01:37:25;12.00;99.90
26505;DHT22;19493;48.042;7.584;2023-05-07T01:39:52;12.00;99.90
26505;DHT22;19493;48.042;7.584;2023-05-07T01:42:18;11.90;99.90
26505;DHT22;19493;48.042;7.584;2023-05-07T01:44:44;11.80;99.90
26505;DHT22;19493;48.042;7.584;2023-05-07T01:47:10;11.80;99.90
26505;DHT22;19493;48.042;7.584;2023-05-07T01:49:35;11.80;99.90
26505;DHT22;19493;48.042;7.584;2023-05-07T01:52:02;11.70;99.90
26505;DHT22;19493;48.042;7.584;2023-05-07T01:54:28;11.70;99.90
26505;DHT22;19493;48.042;7.584;2023-05-07T01:56:58;11.60;99.90
26505;DHT22;19493;48.042;7.584;2023-05-07T01:59:24;11.60;99.90
26505;DHT22;19493;48.042;7.584;2023-05-07T02:01:49;11.50;99.90
26505;DHT22;19493;48.042;7.584;2023-05-07T02:04:15;11.50;99.90
26505;DHT22;19493;48.042;7.584;2023-05-07T02:06:40;11.50;99.90
26505;DHT22;19493;48.042;7.584;2023-05-07T02:09:06;11.50;99.90
26505;DHT22;19493;48.042;7.584;2023-05-07T02:11:31;11.50;99.90
26505;DHT22;19493;48.042;7.584;2023-05-07T02:13:57;11.40;99.90
26505;DHT22;19493;48.042;7.584;2023-05-07T02:16:22;11.50;99.90
26505;DHT22;19493;48.042;7.584;2023-05-07T02:18:49;11.40;99.90
26505;DHT22;19493;48.042;7.584;2023-05-07T02:21:15;11.40;99.90
26505;DHT22;19493;48.042;7.584;2023-05-07T02:23:40;11.40;99.90
26505;DHT22;19493;48.042;7.584;2023-05-07T02:26:06;11.30;99.90
26505;DHT22;19493;48.042;7.584;2023-05-07T02:28:31;11.30;99.90
26505;DHT22;19493;48.042;7.584;2023-05-07T02:30:57;11.30;99.90
26505;DHT22;19493;48.042;7.584;2023-05-07T02:33:23;11.30;99.90
26505;DHT22;19493;48.042;7.584;2023-05-07T02:35:50;11.30;99.90
26505;DHT22;19493;48.042;7.584;2023-05-07T02:38:17;11.30;99.90
26505;DHT22;19493;48.042;7.584;2023-05-07T02:40:42;11.20;99.90
26505;DHT22;19493;48.042;7.584;2023-05-07T02:43:09;11.10;99.90
26505;DHT22;19493;48.042;7.584;2023-05-07T02:45:35;11.20;99.90
26505;DHT22;19493;48.042;7.584;2023-05-07T02:48:03;11.10;99.90
26505;DHT22;19493;48.042;7.584;2023-05-07T02:50:28;11.10;99.90
26505;DHT22;19493;48.042;7.584;2023-05-07T02:52:54;11.00;99.90
26505;DHT22;19493;48.042;7.584;2023-05-07T02:55:19;11.00;99.90
26505;DHT22;19493;48.042;7.584;2023-05-07T02:57:45;11.00;99.90
26505;DHT22;19493;48.042;7.584;2023-05-07T03:00:12;11.10;99.90
26505;DHT22;19493;48.042;7.584;2023-05-07T03:02:38;11.10;99.90
26505;DHT22;19493;48.042;7.584;2023-05-07T03:05:04;11.10;99.90
26505;DHT22;19493;48.042;7.584;2023-05-07T03:07:30;11.20;99.90
26505;DHT22;19493;48.042;7.584;2023-05-07T03:09:55;11.20;99.90
26505;DHT22;19493;48.042;7.584;2023-05-07T03:12:21;11.20;99.90
26505;DHT22;19493;48.042;7.584;2023-05-07T03:14:46;11.30;99.90
26505;DHT22;19493;48.042;7.584;2023-05-07T03:17:12;11.20;99.90
26505;DHT22;19493;48.042;7.584;2023-05-07T03:19:37;11.20;99.90
26505;DHT22;19493;48.042;7.584;2023-05-07T03:22:03;11.20;99.90
26505;DHT22;19493;48.042;7.584;2023-05-07T03:24:28;11.20;99.90
26505;DHT22;19493;48.042;7.584;2023-05-07T03:26:54;11.20;99.90
26505;DHT22;19493;48.042;7.584;2023-05-07T03:29:20;11.20;99.90
26505;DHT22;19493;48.042;7.584;2023-05-07T03:31:45;11.20;99.90
26505;DHT22;19493;48.042;7.584;2023-05-07T03:34:11;11.20;99.90
26505;DHT22;19493;48.042;7.584;2023-05-07T03:36:36;11.10;99.90
26505;DHT22;19493;48.042;7.584;2023-05-07T03:39:02;11.10;99.90
26505;DHT22;19493;48.042;7.584;2023-05-07T03:41:28;11.10;99.90
26505;DHT22;19493;48.042;7.584;2023-05-07T03:43:54;11.10;99.90
26505;DHT22;19493;48.042;7.584;2023-05-07T03:46:20;11.10;99.90
26505;DHT22;19493;48.042;7.584;2023-05-07T03:48:46;11.10;99.90
26505;DHT22;19493;48.042;7.584;2023-05-07T03:51:11;11.10;99.90
26505;DHT22;19493;48.042;7.584;2023-05-07T03:53:37;11.10;99.90
26505;DHT22;19493;48.042;7.584;2023-05-07T03:56:02;11.10;99.90
26505;DHT22;19493;48.042;7.584;2023-05-07T03:58:28;11.10;99.90
26505;DHT22;19493;48.042;7.584;2023-05-07T04:00:54;11.10;99.90
26505;DHT22;19493;48.042;7.584;2023-05-07T04:03:19;11.00;99.90
26505;DHT22;19493;48.042;7.584;2023-05-07T04:05:45;11.10;99.90
26505;DHT22;19493;48.042;7.584;2023-05-07T04:08:10;11.00;99.90
26505;DHT22;19493;48.042;7.584;2023-05-07T04:10:36;11.00;99.90
26505;DHT22;19493;48.042;7.584;2023-05-07T04:13:01;11.00;99.90
26505;DHT22;19493;48.042;7.584;2023-05-07T04:15:27;11.00;99.90
26505;DHT22;19493;48.042;7.584;2023-05-07T04:17:52;11.00;99.90
26505;DHT22;19493;48.042;7.584;2023-05-07T04:20:18;11.10;99.90
26505;DHT22;19493;48.042;7.584;2023-05-07T04:22:43;11.10;99.90
26505;DHT22;19493;48.042;7.584;2023-05-07T04:25:09;11.10;99.90
26505;DHT22;19493;48.042;7.584;2023-05-07T04:27:35;11.10;99.90
26505;DHT22;19493;48.042;7.584;2023-05-07T04:30:02;11.20;99.90
26505;DHT22;19493;48.042;7.584;2023-05-07T04:32:28;11.20;99.90
26505;DHT22;19493;48.042;7.584;2023-05-07T04:34:55;11.30;99.90
26505;DHT22;19493;48.042;7.584;2023-05-07T04:37:21;11.30;99.90
26505;DHT22;19493;48.042;7.584;2023-05-07T04:39:46;11.30;99.90
26505;DHT22;19493;48.042;7.584;2023-05-07T04:42:21;11.30;99.90
26505;DHT22;19493;48.042;7.584;2023-05-07T04:44:46;11.30;99.90
26505;DHT22;19493;48.042;7.584;2023-05-07T04:47:12;11.40;99.90
26505;DHT22;19493;48.042;7.584;2023-05-07T04:49:38;11.50;99.90
26505;DHT22;19493;48.042;7.584;2023-05-07T04:52:04;11.70;99.90
26505;DHT22;19493;48.042;7.584;2023-05-07T04:54:30;11.80;99.90
26505;DHT22;19493;48.042;7.584;2023-05-07T04:56:56;12.00;99.90
26505;DHT22;19493;48.042;7.584;2023-05-07T04:59:21;12.20;99.90
26505;DHT22;19493;48.042;7.584;2023-05-07T05:01:47;12.30;99.90
26505;DHT22;19493;48.042;7.584;2023-05-07T05:04:12;12.50;99.90
26505;DHT22;19493;48.042;7.584;2023-05-07T05:06:38;12.60;99.90
26505;DHT22;19493;48.042;7.584;2023-05-07T05:09:04;12.70;99.90
26505;DHT22;19493;48.042;7.584;2023-05-07T05:11:30;12.70;99.90
26505;DHT22;19493;48.042;7.584;2023-05-07T05:13:56;12.70;99.90
26505;DHT22;19493;48.042;7.584;2023-05-07T05:16:22;12.70;99.90
26505;DHT22;19493;48.042;7.584;2023-05-07T05:18:47;12.80;99.90
26505;DHT22;19493;48.042;7.584;2023-05-07T05:21:13;12.80;99.90
26505;DHT22;19493;48.042;7.584;2023-05-07T05:23:40;13.00;99.90
26505;DHT22;19493;48.042;7.584;2023-05-07T05:26:06;13.10;99.90
26505;DHT22;19493;48.042;7.584;2023-05-07T05:28:31;13.20;99.90
26505;DHT22;19493;48.042;7.584;2023-05-07T05:30:57;13.30;99.90
26505;DHT22;19493;48.042;7.584;2023-05-07T05:33:22;13.50;99.90
26505;DHT22;19493;48.042;7.584;2023-05-07T05:35:49;13.60;99.90
26505;DHT22;19493;48.042;7.584;2023-05-07T05:38:14;13.80;99.90
26505;DHT22;19493;48.042;7.584;2023-05-07T05:40:40;13.90;99.90
26505;DHT22;19493;48.042;7.584;2023-05-07T05:43:06;14.10;99.90
26505;DHT22;19493;48.042;7.584;2023-05-07T05:45:31;14.40;99.90
26505;DHT22;19493;48.042;7.584;2023-05-07T05:47:57;14.60;99.90
26505;DHT22;19493;48.042;7.584;2023-05-07T05:50:23;14.80;99.90
26505;DHT22;19493;48.042;7.584;2023-05-07T05:52:48;15.00;99.90
26505;DHT22;19493;48.042;7.584;2023-05-07T05:55:14;15.10;99.90
26505;DHT22;19493;48.042;7.584;2023-05-07T05:57:39;15.10;99.90
26505;DHT22;19493;48.042;7.584;2023-05-07T06:00:06;15.10;99.90
26505;DHT22;19493;48.042;7.584;2023-05-07T06:02:32;15.10;99.90
26505;DHT22;19493;48.042;7.584;2023-05-07T06:04:57;15.00;99.90
26505;DHT22;19493;48.042;7.584;2023-05-07T06:07:23;15.10;99.90
26505;DHT22;19493;48.042;7.584;2023-05-07T06:09:48;15.20;99.90
26505;DHT22;19493;48.042;7.584;2023-05-07T06:12:14;15.30;99.90
26505;DHT22;19493;48.042;7.584;2023-05-07T06:14:39;15.40;99.90
26505;DHT22;19493;48.042;7.584;2023-05-07T06:17:06;15.50;99.90
26505;DHT22;19493;48.042;7.584;2023-05-07T06:19:32;15.70;99.90
26505;DHT22;19493;48.042;7.584;2023-05-07T06:21:57;15.70;99.90
26505;DHT22;19493;48.042;7.584;2023-05-07T06:24:23;15.80;99.90
26505;DHT22;19493;48.042;7.584;2023-05-07T06:26:49;15.90;99.90
26505;DHT22;19493;48.042;7.584;2023-05-07T06:29:15;16.10;99.90
26505;DHT22;19493;48.042;7.584;2023-05-07T06:31:40;16.10;99.90
26505;DHT22;19493;48.042;7.584;2023-05-07T06:34:06;16.30;99.90
26505;DHT22;19493;48.042;7.584;2023-05-07T06:36:32;16.50;99.90
26505;DHT22;19493;48.042;7.584;2023-05-07T06:38:57;16.60;99.90
26505;DHT22;19493;48.042;7.584;2023-05-07T06:41:23;16.60;99.90
26505;DHT22;19493;48.042;7.584;2023-05-07T06:43:48;16.80;99.90
26505;DHT22;19493;48.042;7.584;2023-05-07T06:46:14;16.80;99.90
26505;DHT22;19493;48.042;7.584;2023-05-07T06:48:40;16.90;99.90
26505;DHT22;19493;48.042;7.584;2023-05-07T06:51:05;17.00;99.90
26505;DHT22;19493;48.042;7.584;2023-05-07T06:53:31;17.10;99.90
26505;DHT22;19493;48.042;7.584;2023-05-07T06:55:57;17.20;99.90
26505;DHT22;19493;48.042;7.584;2023-05-07T06:58:22;17.50;99.90
26505;DHT22;19493;48.042;7.584;2023-05-07T07:00:48;17.70;99.90
26505;DHT22;19493;48.042;7.584;2023-05-07T07:03:14;17.70;99.90
26505;DHT22;19493;48.042;7.584;2023-05-07T07:05:42;17.90;99.90
26505;DHT22;19493;48.042;7.584;2023-05-07T07:08:08;18.00;99.90
26505;DHT22;19493;48.042;7.584;2023-05-07T07:10:33;18.00;99.90
26505;DHT22;19493;48.042;7.584;2023-05-07T07:12:59;17.90;99.90
26505;DHT22;19493;48.042;7.584;2023-05-07T07:15:26;18.00;99.90
26505;DHT22;19493;48.042;7.584;2023-05-07T07:17:51;18.00;99.90
26505;DHT22;19493;48.042;7.584;2023-05-07T07:20:17;18.10;99.90
26505;DHT22;19493;48.042;7.584;2023-05-07T07:22:42;18.30;99.90
26505;DHT22;19493;48.042;7.584;2023-05-07T07:25:08;18.40;99.90
26505;DHT22;19493;48.042;7.584;2023-05-07T07:27:34;18.50;99.90
26505;DHT22;19493;48.042;7.584;2023-05-07T07:30:00;18.50;99.90
26505;DHT22;19493;48.042;7.584;2023-05-07T07:32:25;18.60;99.90
26505;DHT22;19493;48.042;7.584;2023-05-07T07:34:51;18.70;99.90
26505;DHT22;19493;48.042;7.584;2023-05-07T07:37:17;18.90;99.90
26505;DHT22;19493;48.042;7.584;2023-05-07T07:39:42;19.10;99.90
26505;DHT22;19493;48.042;7.584;2023-05-07T07:42:08;19.40;99.90
26505;DHT22;19493;48.042;7.584;2023-05-07T07:44:33;19.60;99.90
26505;DHT22;19493;48.042;7.584;2023-05-07T07:46:59;19.80;99.90
26505;DHT22;19493;48.042;7.584;2023-05-07T07:49:24;20.10;99.90
26505;DHT22;19493;48.042;7.584;2023-05-07T07:51:50;20.10;99.90
26505;DHT22;19493;48.042;7.584;2023-05-07T07:54:16;20.20;99.90
26505;DHT22;19493;48.042;7.584;2023-05-07T07:56:41;20.30;99.90
26505;DHT22;19493;48.042;7.584;2023-05-07T07:59:07;20.30;99.90
26505;DHT22;19493;48.042;7.584;2023-05-07T08:01:33;20.50;99.90
26505;DHT22;19493;48.042;7.584;2023-05-07T08:03:58;20.70;99.90
26505;DHT22;19493;48.042;7.584;2023-05-07T08:06:24;21.10;99.90
26505;DHT22;19493;48.042;7.584;2023-05-07T08:08:51;21.20;99.90
26505;DHT22;19493;48.042;7.584;2023-05-07T08:11:16;21.40;99.90
26505;DHT22;19493;48.042;7.584;2023-05-07T08:13:42;21.40;99.90
26505;DHT22;19493;48.042;7.584;2023-05-07T08:16:08;21.30;99.90
26505;DHT22;19493;48.042;7.584;2023-05-07T08:18:33;21.10;99.90
26505;DHT22;19493;48.042;7.584;2023-05-07T08:20:59;21.10;99.90
26505;DHT22;19493;48.042;7.584;2023-05-07T08:23:25;21.10;99.90
26505;DHT22;19493;48.042;7.584;2023-05-07T08:25:50;21.10;99.90
26505;DHT22;19493;48.042;7.584;2023-05-07T08:28:16;21.20;99.90
26505;DHT22;19493;48.042;7.584;2023-05-07T08:30:42;21.20;99.90
26505;DHT22;19493;48.042;7.584;2023-05-07T08:33:08;21.10;99.90
26505;DHT22;19493;48.042;7.584;2023-05-07T08:35:34;21.10;99.90
26505;DHT22;19493;48.042;7.584;2023-05-07T08:38:00;21.40;99.90
26505;DHT22;19493;48.042;7.584;2023-05-07T08:40:26;21.50;99.90
26505;DHT22;19493;48.042;7.584;2023-05-07T08:42:53;21.70;99.90
26505;DHT22;19493;48.042;7.584;2023-05-07T08:45:20;22.10;99.90
26505;DHT22;19493;48.042;7.584;2023-05-07T08:47:58;22.30;99.90
26505;DHT22;19493;48.042;7.584;2023-05-07T08:50:24;22.60;99.90
26505;DHT22;19493;48.042;7.584;2023-05-07T08:52:50;23.00;99.90
26505;DHT22;19493;48.042;7.584;2023-05-07T08:55:16;23.40;99.90
26505;DHT22;19493;48.042;7.584;2023-05-07T08:57:42;23.80;99.90
26505;DHT22;19493;48.042;7.584;2023-05-07T09:00:08;24.80;99.90
26505;DHT22;19493;48.042;7.584;2023-05-07T09:02:35;26.30;99.90
26505;DHT22;19493;48.042;7.584;2023-05-07T09:05:01;27.60;99.90
26505;DHT22;19493;48.042;7.584;2023-05-07T09:07:27;27.80;98.50
26505;DHT22;19493;48.042;7.584;2023-05-07T09:09:53;27.40;96.50
26505;DHT22;19493;48.042;7.584;2023-05-07T09:12:21;26.60;96.00
26505;DHT22;19493;48.042;7.584;2023-05-07T09:14:46;26.20;96.80
26505;DHT22;19493;48.042;7.584;2023-05-07T09:17:13;26.00;96.70
26505;DHT22;19493;48.042;7.584;2023-05-07T09:19:38;25.50;96.90
26505;DHT22;19493;48.042;7.584;2023-05-07T09:22:05;25.30;97.60
26505;DHT22;19493;48.042;7.584;2023-05-07T09:24:32;25.10;97.90
26505;DHT22;19493;48.042;7.584;2023-05-07T09:27:06;25.10;97.40
26505;DHT22;19493;48.042;7.584;2023-05-07T09:29:33;25.10;98.00
26505;DHT22;19493;48.042;7.584;2023-05-07T09:32:03;25.10;97.50
26505;DHT22;19493;48.042;7.584;2023-05-07T09:34:29;24.60;96.90
26505;DHT22;19493;48.042;7.584;2023-05-07T09:36:56;24.20;97.60
26505;DHT22;19493;48.042;7.584;2023-05-07T09:39:26;24.10;98.50
26505;DHT22;19493;48.042;7.584;2023-05-07T09:41:51;23.90;98.40
26505;DHT22;19493;48.042;7.584;2023-05-07T09:44:20;23.60;98.70
26505;DHT22;19493;48.042;7.584;2023-05-07T09:46:47;23.20;99.20
26505;DHT22;19493;48.042;7.584;2023-05-07T09:49:21;22.90;99.50
26505;DHT22;19493;48.042;7.584;2023-05-07T09:51:52;22.70;99.90
26505;DHT22;19493;48.042;7.584;2023-05-07T09:54:18;22.30;99.90
26505;DHT22;19493;48.042;7.584;2023-05-07T09:56:51;22.20;99.90
26505;DHT22;19493;48.042;7.584;2023-05-07T09:59:18;21.80;99.90
26505;DHT22;19493;48.042;7.584;2023-05-07T10:01:45;21.70;99.90
26505;DHT22;19493;48.042;7.584;2023-05-07T10:04:11;21.60;99.90
26505;DHT22;19493;48.042;7.584;2023-05-07T10:06:37;21.50;99.90
26505;DHT22;19493;48.042;7.584;2023-05-07T10:09:04;21.30;99.90
26505;DHT22;19493;48.042;7.584;2023-05-07T10:11:34;21.20;99.90
26505;DHT22;19493;48.042;7.584;2023-05-07T10:14:04;21.10;99.90
26505;DHT22;19493;48.042;7.584;2023-05-07T10:16:34;20.90;99.90
26505;DHT22;19493;48.042;7.584;2023-05-07T10:19:05;20.80;99.90
26505;DHT22;19493;48.042;7.584;2023-05-07T10:21:35;20.70;99.90
26505;DHT22;19493;48.042;7.584;2023-05-07T10:24:25;20.50;99.90
26505;DHT22;19493;48.042;7.584;2023-05-07T10:26:52;20.40;99.90
26505;DHT22;19493;48.042;7.584;2023-05-07T10:29:28;20.20;99.90
26505;DHT22;19493;48.042;7.584;2023-05-07T10:32:19;20.00;99.90
26505;DHT22;19493;48.042;7.584;2023-05-07T10:34:50;19.90;99.90
26505;DHT22;19493;48.042;7.584;2023-05-07T10:37:18;19.70;99.90
26505;DHT22;19493;48.042;7.584;2023-05-07T10:39:44;19.40;99.90
26505;DHT22;19493;48.042;7.584;2023-05-07T10:42:11;19.30;99.90
26505;DHT22;19493;48.042;7.584;2023-05-07T10:44:37;18.90;99.90
26505;DHT22;19493;48.042;7.584;2023-05-07T10:47:11;18.40;99.90
26505;DHT22;19493;48.042;7.584;2023-05-07T10:54:41;17.20;99.90
26505;DHT22;19493;48.042;7.584;2023-05-07T10:57:32;17.10;99.90
26505;DHT22;19493;48.042;7.584;2023-05-07T10:59:58;17.10;99.90
26505;DHT22;19493;48.042;7.584;2023-05-07T11:05:25;17.30;99.90
26505;DHT22;19493;48.042;7.584;2023-05-07T11:07:55;17.50;99.90
26505;DHT22;19493;48.042;7.584;2023-05-07T11:10:21;17.60;99.90
26505;DHT22;19493;48.042;7.584;2023-05-07T11:12:48;17.60;99.90
26505;DHT22;19493;48.042;7.584;2023-05-07T11:15:14;17.80;99.90
26505;DHT22;19493;48.042;7.584;2023-05-07T11:17:56;18.10;99.90
26505;DHT22;19493;48.042;7.584;2023-05-07T11:23:14;18.70;99.90
26505;DHT22;19493;48.042;7.584;2023-05-07T11:26:05;19.00;99.90
26505;DHT22;19493;48.042;7.584;2023-05-07T11:28:37;19.70;99.90
26505;DHT22;19493;48.042;7.584;2023-05-07T11:31:03;20.60;99.90
26505;DHT22;19493;48.042;7.584;2023-05-07T11:33:29;21.40;99.90
26505;DHT22;19493;48.042;7.584;2023-05-07T11:35:56;22.20;99.90
26505;DHT22;19493;48.042;7.584;2023-05-07T11:40:56;22.60;99.90
26505;DHT22;19493;48.042;7.584;2023-05-07T11:43:32;22.70;99.90
26505;DHT22;19493;48.042;7.584;2023-05-07T11:46:12;22.60;99.90
26505;DHT22;19493;48.042;7.584;2023-05-07T11:48:39;22.40;99.90
26505;DHT22;19493;48.042;7.584;2023-05-07T11:51:06;22.20;99.90
26505;DHT22;19493;48.042;7.584;2023-05-07T11:53:41;22.00;99.90
26505;DHT22;19493;48.042;7.584;2023-05-07T11:56:09;21.80;99.90
26505;DHT22;19493;48.042;7.584;2023-05-07T11:58:35;21.70;99.90
26505;DHT22;19493;48.042;7.584;2023-05-07T12:01:02;21.60;99.90
26505;DHT22;19493;48.042;7.584;2023-05-07T12:03:28;21.50;99.90
26505;DHT22;19493;48.042;7.584;2023-05-07T12:05:54;21.50;99.90
26505;DHT22;19493;48.042;7.584;2023-05-07T12:08:21;21.50;99.90
26505;DHT22;19493;48.042;7.584;2023-05-07T12:10:48;21.70;99.90
26505;DHT22;19493;48.042;7.584;2023-05-07T12:13:15;21.80;99.90
26505;DHT22;19493;48.042;7.584;2023-05-07T12:15:42;22.10;99.90
26505;DHT22;19493;48.042;7.584;2023-05-07T12:18:08;22.30;99.90
26505;DHT22;19493;48.042;7.584;2023-05-07T12:20:35;22.20;99.90
26505;DHT22;19493;48.042;7.584;2023-05-07T12:23:01;22.10;99.90
26505;DHT22;19493;48.042;7.584;2023-05-07T12:25:30;21.90;99.90
26505;DHT22;19493;48.042;7.584;2023-05-07T12:27:56;21.80;99.90
26505;DHT22;19493;48.042;7.584;2023-05-07T12:30:24;21.70;99.90
26505;DHT22;19493;48.042;7.584;2023-05-07T12:32:53;21.70;99.90
26505;DHT22;19493;48.042;7.584;2023-05-07T12:35:27;21.50;99.90
26505;DHT22;19493;48.042;7.584;2023-05-07T12:37:59;21.60;99.90
26505;DHT22;19493;48.042;7.584;2023-05-07T12:40:55;21.60;99.90
26505;DHT22;19493;48.042;7.584;2023-05-07T12:43:25;21.70;99.90
26505;DHT22;19493;48.042;7.584;2023-05-07T12:45:51;21.80;99.90
26505;DHT22;19493;48.042;7.584;2023-05-07T12:48:17;21.90;99.90
26505;DHT22;19493;48.042;7.584;2023-05-07T12:50:44;22.00;99.90
26505;DHT22;19493;48.042;7.584;2023-05-07T12:53:11;22.10;99.90
26505;DHT22;19493;48.042;7.584;2023-05-07T12:55:45;22.00;99.90
26505;DHT22;19493;48.042;7.584;2023-05-07T12:58:26;21.90;99.90
26505;DHT22;19493;48.042;7.584;2023-05-07T13:00:53;21.80;99.90
26505;DHT22;19493;48.042;7.584;2023-05-07T13:03:24;21.60;99.90
26505;DHT22;19493;48.042;7.584;2023-05-07T13:05:51;21.50;99.90
26505;DHT22;19493;48.042;7.584;2023-05-07T13:08:40;21.30;99.90
26505;DHT22;19493;48.042;7.584;2023-05-07T13:11:09;21.20;99.90
26505;DHT22;19493;48.042;7.584;2023-05-07T13:13:36;21.30;99.90
26505;DHT22;19493;48.042;7.584;2023-05-07T13:16:03;21.40;99.90
26505;DHT22;19493;48.042;7.584;2023-05-07T13:18:32;21.70;99.90
26505;DHT22;19493;48.042;7.584;2023-05-07T13:20:58;22.10;99.90
26505;DHT22;19493;48.042;7.584;2023-05-07T13:23:24;22.70;99.90
26505;DHT22;19493;48.042;7.584;2023-05-07T13:25:50;23.30;99.90
26505;DHT22;19493;48.042;7.584;2023-05-07T13:28:16;23.50;99.90
26505;DHT22;19493;48.042;7.584;2023-05-07T13:30:42;23.90;99.90
26505;DHT22;19493;48.042;7.584;2023-05-07T13:33:08;24.00;99.90
26505;DHT22;19493;48.042;7.584;2023-05-07T13:35:34;24.20;99.90
26505;DHT22;19493;48.042;7.584;2023-05-07T13:37:59;24.70;99.90
26505;DHT22;19493;48.042;7.584;2023-05-07T13:40:25;25.50;99.90
26505;DHT22;19493;48.042;7.584;2023-05-07T13:42:51;26.10;99.90
26505;DHT22;19493;48.042;7.584;2023-05-07T13:45:17;26.40;99.90
26505;DHT22;19493;48.042;7.584;2023-05-07T13:47:44;26.60;99.90
26505;DHT22;19493;48.042;7.584;2023-05-07T13:50:11;26.90;99.90
26505;DHT22;19493;48.042;7.584;2023-05-07T13:52:37;26.70;99.40
26505;DHT22;19493;48.042;7.584;2023-05-07T13:55:03;26.30;99.90
26505;DHT22;19493;48.042;7.584;2023-05-07T13:57:29;25.80;99.50
26505;DHT22;19493;48.042;7.584;2023-05-07T13:59:54;25.30;99.90
26505;DHT22;19493;48.042;7.584;2023-05-07T14:02:20;25.00;99.90
26505;DHT22;19493;48.042;7.584;2023-05-07T14:04:46;24.60;99.90
26505;DHT22;19493;48.042;7.584;2023-05-07T14:07:11;24.40;99.90
26505;DHT22;19493;48.042;7.584;2023-05-07T14:09:37;24.10;99.90
26505;DHT22;19493;48.042;7.584;2023-05-07T14:12:03;23.90;99.90
26505;DHT22;19493;48.042;7.584;2023-05-07T14:14:28;23.60;99.90
26505;DHT22;19493;48.042;7.584;2023-05-07T14:16:54;23.50;99.90
26505;DHT22;19493;48.042;7.584;2023-05-07T14:19:19;23.10;99.90
26505;DHT22;19493;48.042;7.584;2023-05-07T14:21:45;23.00;99.90
26505;DHT22;19493;48.042;7.584;2023-05-07T14:24:10;22.80;99.90
26505;DHT22;19493;48.042;7.584;2023-05-07T14:26:36;22.80;99.90
26505;DHT22;19493;48.042;7.584;2023-05-07T14:29:02;22.70;99.90
26505;DHT22;19493;48.042;7.584;2023-05-07T14:31:28;22.90;99.90
26505;DHT22;19493;48.042;7.584;2023-05-07T14:33:54;23.40;99.90
26505;DHT22;19493;48.042;7.584;2023-05-07T14:36:20;23.80;99.90
26505;DHT22;19493;48.042;7.584;2023-05-07T14:38:46;24.40;99.90
26505;DHT22;19493;48.042;7.584;2023-05-07T14:41:12;25.50;99.90
26505;DHT22;19493;48.042;7.584;2023-05-07T14:43:38;27.20;99.90
26505;DHT22;19493;48.042;7.584;2023-05-07T14:46:03;28.30;98.60
26505;DHT22;19493;48.042;7.584;2023-05-07T14:48:29;29.10;96.40
26505;DHT22;19493;48.042;7.584;2023-05-07T14:50:54;29.30;94.20
26505;DHT22;19493;48.042;7.584;2023-05-07T14:53:20;28.90;90.80
26505;DHT22;19493;48.042;7.584;2023-05-07T14:55:46;28.10;91.70
26505;DHT22;19493;48.042;7.584;2023-05-07T14:58:12;27.60;91.60
26505;DHT22;19493;48.042;7.584;2023-05-07T15:00:37;26.90;92.40
26505;DHT22;19493;48.042;7.584;2023-05-07T15:03:09;26.00;92.60
26505;DHT22;19493;48.042;7.584;2023-05-07T15:05:36;25.60;93.70
26505;DHT22;19493;48.042;7.584;2023-05-07T15:08:02;25.20;93.80
26505;DHT22;19493;48.042;7.584;2023-05-07T15:10:28;25.20;94.50
26505;DHT22;19493;48.042;7.584;2023-05-07T15:12:53;25.10;95.00
26505;DHT22;19493;48.042;7.584;2023-05-07T15:15:19;24.70;95.40
26505;DHT22;19493;48.042;7.584;2023-05-07T15:17:44;24.30;95.90
26505;DHT22;19493;48.042;7.584;2023-05-07T15:20:10;24.00;96.40
26505;DHT22;19493;48.042;7.584;2023-05-07T15:22:36;23.60;97.00
26505;DHT22;19493;48.042;7.584;2023-05-07T15:25:03;23.50;98.30
26505;DHT22;19493;48.042;7.584;2023-05-07T15:27:29;23.20;97.70
26505;DHT22;19493;48.042;7.584;2023-05-07T15:29:56;23.30;98.80
26505;DHT22;19493;48.042;7.584;2023-05-07T15:32:22;23.40;99.50
26505;DHT22;19493;48.042;7.584;2023-05-07T15:34:47;23.10;98.00
26505;DHT22;19493;48.042;7.584;2023-05-07T15:37:13;22.90;99.60
26505;DHT22;19493;48.042;7.584;2023-05-07T15:39:38;22.90;99.90
26505;DHT22;19493;48.042;7.584;2023-05-07T15:42:04;22.90;99.90